Terminal Aerodrome Forecast
Issued by NWS Jackson, KY

Home | Current Version | Previous Version | Text Only | Print | Product List | Glossary On
Versions: 1 2 3 4 5 6 7 8 9 10 11 12 13 14 15
000
FTUS43 KJKL 221041 AAD
TAFLOZ
TAF AMD
KLOZ 221041Z 2211/2306 00000KT 1/4SM FG VV001
     FM221200 00000KT 2SM BR SCT010
     FM221300 VRB04KT P6SM SKC=

USA.gov is the U.S. government's official web portal to all federal, state and local government web resources and services.